Time;durP1;ratioP1;P1;durP2;ratioP2;P2;SDS_P1;SDS_P2;PMS_P1;PMS_P2;Temp;Humidity;BMP_temperature;BMP_pressure;BME280_temperature;BME280_humidity;BME280_pressure;Samples;Min_cycle;Max_cycle;Signal;HPM_P1;HPM_P2
2023/05/23 00:02:12;;;;;;;10.20;6.25;;;;;;;;;;5020959;28;20504;-51
2023/05/23 00:04:37;;;;;;;11.63;6.28;;;;;;;;;;5020981;28;20032;-52
2023/05/23 00:07:02;;;;;;;16.75;6.30;;;;;;;;;;5038883;28;20057;-54
2023/05/23 00:09:28;;;;;;;10.55;6.30;;;;;;;;;;5020672;28;20064;-51
2023/05/23 00:11:53;;;;;;;15.00;6.60;;;;;;;;;;5038333;28;20031;-53
2023/05/23 00:14:18;;;;;;;10.07;5.88;;;;;;;;;;5038721;28;20666;-52
2023/05/23 00:16:45;;;;;;;15.88;6.35;;;;;;;;;;5038725;28;20024;-51
2023/05/23 00:19:13;;;;;;;11.48;6.95;;;;;;;;;;5038609;28;20078;-54
2023/05/23 00:21:39;;;;;;;13.02;6.88;;;;;;;;;;5039032;28;20020;-54
2023/05/23 00:24:04;;;;;;;12.02;6.57;;;;;;;;;;5038687;28;20025;-52
2023/05/23 00:26:30;;;;;;;10.68;6.20;;;;;;;;;;5038818;28;20025;-54
2023/05/23 00:28:56;;;;;;;11.85;6.40;;;;;;;;;;5038341;28;20060;-52
2023/05/23 00:31:21;;;;;;;9.43;5.85;;;;;;;;;;5038426;28;20033;-52
2023/05/23 00:33:47;;;;;;;13.35;6.25;;;;;;;;;;5020125;28;20380;-53
2023/05/23 00:36:12;;;;;;;11.75;6.13;;;;;;;;;;5038796;28;20036;-50
2023/05/23 00:38:38;;;;;;;9.20;5.72;;;;;;;;;;5038105;28;20379;-52
2023/05/23 00:41:04;;;;;;;9.30;5.68;;;;;;;;;;4995433;28;20034;-53
2023/05/23 00:43:30;;;;;;;9.32;5.93;;;;;;;;;;4979379;28;20036;-50
2023/05/23 00:45:55;;;;;;;10.95;6.15;;;;;;;;;;4995541;28;20406;-54
2023/05/23 00:48:21;;;;;;;11.50;6.57;;;;;;;;;;4995961;28;20022;-54
2023/05/23 00:50:46;;;;;;;11.13;5.95;;;;;;;;;;4995401;28;20068;-53
2023/05/23 00:53:12;;;;;;;9.75;5.43;;;;;;;;;;4995563;28;20717;-53
2023/05/23 00:55:38;;;;;;;8.77;6.03;;;;;;;;;;4994975;28;20029;-55
2023/05/23 00:58:04;;;;;;;11.00;5.93;;;;;;;;;;4962999;28;20496;-53
2023/05/23 01:00:32;;;;;;;8.88;5.88;;;;;;;;;;4979261;28;20026;-51
2023/05/23 01:02:58;;;;;;;9.35;5.88;;;;;;;;;;4978836;28;20420;-52
2023/05/23 01:05:23;;;;;;;10.63;5.80;;;;;;;;;;4995642;28;20026;-50
2023/05/23 01:07:49;;;;;;;9.25;5.75;;;;;;;;;;4994985;28;20077;-51
2023/05/23 01:10:16;;;;;;;12.30;5.78;;;;;;;;;;4995493;28;20033;-53
2023/05/23 01:12:44;;;;;;;11.52;6.40;;;;;;;;;;4995631;28;20050;-51
2023/05/23 01:15:13;;;;;;;8.18;5.63;;;;;;;;;;4995325;28;20432;-53
2023/05/23 01:17:40;;;;;;;10.30;5.57;;;;;;;;;;5001410;28;20068;-53
2023/05/23 01:20:13;;;;;;;12.48;6.43;;;;;;;;;;5037667;28;20021;-52
2023/05/23 01:23:10;;;;;;;9.45;6.20;;;;;;;;;;5037823;28;20040;-54
2023/05/23 01:25:46;;;;;;;8.93;6.13;;;;;;;;;;4936853;29;20043;-50
2023/05/23 01:28:14;;;;;;;9.60;6.40;;;;;;;;;;4937026;29;20034;-54
2023/05/23 01:30:39;;;;;;;12.00;7.20;;;;;;;;;;4937223;29;20498;-52
2023/05/23 01:33:06;;;;;;;13.40;6.72;;;;;;;;;;4937086;29;20038;-52
2023/05/23 01:35:32;;;;;;;10.23;6.63;;;;;;;;;;4936910;29;20098;-54
2023/05/23 01:37:57;;;;;;;19.58;6.80;;;;;;;;;;4937625;29;20039;-53
2023/05/23 01:40:23;;;;;;;12.48;7.20;;;;;;;;;;4937115;29;20467;-52
2023/05/23 01:42:49;;;;;;;13.73;7.20;;;;;;;;;;4937289;28;20047;-52
2023/05/23 01:45:16;;;;;;;7.88;5.75;;;;;;;;;;4939198;29;20189;-49
2023/05/23 01:47:42;;;;;;;16.42;13.30;;;;;;;;;;4940890;29;20031;-55
2023/05/23 01:50:08;;;;;;;15.02;7.15;;;;;;;;;;4940425;29;20394;-53
2023/05/23 01:52:33;;;;;;;12.52;6.50;;;;;;;;;;4940700;29;20525;-52
2023/05/23 01:54:59;;;;;;;12.32;6.65;;;;;;;;;;4940717;29;20482;-54
2023/05/23 01:57:25;;;;;;;9.90;5.57;;;;;;;;;;4940188;29;20034;-51
2023/05/23 01:59:50;;;;;;;11.00;6.45;;;;;;;;;;4940532;29;20046;-54
2023/05/23 02:02:15;;;;;;;12.73;7.18;;;;;;;;;;5001716;28;20033;-54
2023/05/23 02:04:41;;;;;;;13.35;6.60;;;;;;;;;;5041510;28;20056;-51
2023/05/23 02:07:06;;;;;;;15.05;7.47;;;;;;;;;;5022792;28;20091;-51
2023/05/23 02:09:31;;;;;;;14.95;7.25;;;;;;;;;;5041047;28;20021;-54
2023/05/23 02:11:58;;;;;;;14.18;6.97;;;;;;;;;;5040954;28;20492;-53
2023/05/23 02:14:25;;;;;;;13.40;7.35;;;;;;;;;;5041188;28;20256;-53
2023/05/23 02:16:52;;;;;;;16.45;7.40;;;;;;;;;;5041252;28;20021;-53
2023/05/23 02:19:18;;;;;;;10.27;7.18;;;;;;;;;;5040925;28;20027;-55
2023/05/23 02:21:43;;;;;;;25.70;7.05;;;;;;;;;;5041013;28;20060;-53
2023/05/23 02:24:08;;;;;;;10.82;6.65;;;;;;;;;;5040803;28;20036;-54
2023/05/23 02:26:33;;;;;;;14.52;7.13;;;;;;;;;;5022922;28;20032;-53
2023/05/23 02:28:59;;;;;;;13.25;6.90;;;;;;;;;;5040447;28;20053;-53
2023/05/23 02:31:25;;;;;;;19.08;7.32;;;;;;;;;;5040779;28;20469;-54
2023/05/23 02:33:50;;;;;;;10.48;6.50;;;;;;;;;;5040877;28;20033;-54
2023/05/23 02:36:16;;;;;;;10.23;6.22;;;;;;;;;;5040491;28;20448;-55
2023/05/23 02:38:41;;;;;;;9.68;6.80;;;;;;;;;;5040589;28;20087;-54
2023/05/23 02:41:06;;;;;;;13.98;6.72;;;;;;;;;;5040291;28;20029;-54
2023/05/23 02:43:32;;;;;;;10.60;6.80;;;;;;;;;;5040638;28;20021;-52
2023/05/23 02:45:57;;;;;;;15.73;6.57;;;;;;;;;;5040357;28;20424;-52
2023/05/23 02:48:22;;;;;;;10.60;6.80;;;;;;;;;;5040664;28;20108;-55
2023/05/23 02:50:47;;;;;;;10.43;6.60;;;;;;;;;;5040444;28;20196;-54
2023/05/23 02:53:13;;;;;;;8.00;6.30;;;;;;;;;;5040458;28;20028;-54
2023/05/23 02:55:38;;;;;;;13.45;7.57;;;;;;;;;;5039233;28;20385;-54
2023/05/23 02:58:04;;;;;;;12.10;6.80;;;;;;;;;;5021039;28;20076;-53
2023/05/23 03:00:31;;;;;;;19.08;7.03;;;;;;;;;;5039923;28;20033;-54
2023/05/23 03:02:56;;;;;;;10.43;6.40;;;;;;;;;;5040273;28;20397;-54
2023/05/23 03:05:21;;;;;;;10.68;5.78;;;;;;;;;;5040385;28;20158;-53
2023/05/23 03:07:47;;;;;;;9.98;6.55;;;;;;;;;;5039470;28;20116;-50
2023/05/23 03:10:12;;;;;;;12.18;5.75;;;;;;;;;;5039869;28;20025;-54
2023/05/23 03:12:37;;;;;;;12.43;7.00;;;;;;;;;;5039699;28;20400;-56
2023/05/23 03:15:03;;;;;;;12.35;6.95;;;;;;;;;;5039880;28;20781;-54
2023/05/23 03:17:28;;;;;;;12.55;7.40;;;;;;;;;;5039521;28;20086;-53
2023/05/23 03:19:53;;;;;;;10.65;7.15;;;;;;;;;;5039819;28;20021;-54
2023/05/23 03:22:19;;;;;;;12.00;7.80;;;;;;;;;;5039425;28;20102;-53
2023/05/23 03:24:44;;;;;;;17.63;6.70;;;;;;;;;;5039892;28;20021;-53
2023/05/23 03:27:09;;;;;;;8.57;6.05;;;;;;;;;;5039449;28;20033;-55
2023/05/23 03:29:34;;;;;;;15.02;6.57;;;;;;;;;;5021146;28;20482;-52
2023/05/23 03:32:00;;;;;;;11.88;7.38;;;;;;;;;;5039486;28;20043;-52
2023/05/23 03:34:26;;;;;;;9.70;6.63;;;;;;;;;;5039345;28;20052;-53
2023/05/23 03:36:51;;;;;;;16.25;7.22;;;;;;;;;;5039714;28;20415;-54
2023/05/23 03:39:17;;;;;;;12.43;7.05;;;;;;;;;;5038999;28;20044;-53
2023/05/23 03:41:42;;;;;;;14.30;7.40;;;;;;;;;;5039393;28;20112;-53
2023/05/23 03:44:07;;;;;;;10.30;6.82;;;;;;;;;;5038954;28;20025;-53
2023/05/23 03:46:33;;;;;;;14.60;8.00;;;;;;;;;;5039542;28;20094;-53
2023/05/23 03:48:58;;;;;;;17.67;8.30;;;;;;;;;;5039119;28;20027;-52
2023/05/23 03:51:23;;;;;;;10.43;7.40;;;;;;;;;;5038999;28;20029;-55
2023/05/23 03:53:49;;;;;;;18.58;8.43;;;;;;;;;;5038606;28;20075;-53
2023/05/23 03:56:14;;;;;;;9.07;6.45;;;;;;;;;;5038369;28;20488;-51
2023/05/23 03:58:39;;;;;;;14.82;8.68;;;;;;;;;;5038582;28;20025;-51
2023/05/23 04:01:04;;;;;;;15.52;8.43;;;;;;;;;;5038806;28;20078;-55
2023/05/23 04:03:33;;;;;;;14.63;8.57;;;;;;;;;;5039013;28;20075;-53
2023/05/23 04:05:59;;;;;;;12.70;7.82;;;;;;;;;;5038169;28;20065;-52
2023/05/23 04:08:25;;;;;;;10.35;6.75;;;;;;;;;;5038675;28;20032;-55
2023/05/23 04:10:50;;;;;;;21.48;8.25;;;;;;;;;;5038583;28;20017;-52
2023/05/23 04:13:16;;;;;;;11.48;7.25;;;;;;;;;;5038861;28;20024;-53
2023/05/23 04:15:41;;;;;;;11.65;6.25;;;;;;;;;;5038128;28;20067;-54
2023/05/23 04:18:08;;;;;;;18.90;7.43;;;;;;;;;;5038506;28;20021;-54
2023/05/23 04:20:33;;;;;;;12.25;7.03;;;;;;;;;;5039154;28;20021;-54
2023/05/23 04:22:58;;;;;;;10.23;6.13;;;;;;;;;;5038264;28;20028;-52
2023/05/23 04:25:25;;;;;;;18.70;6.88;;;;;;;;;;5038523;28;20028;-52
2023/05/23 04:27:50;;;;;;;11.38;6.45;;;;;;;;;;5037668;28;20111;-52
2023/05/23 04:30:17;;;;;;;10.23;5.63;;;;;;;;;;5038903;28;20104;-50
2023/05/23 04:32:42;;;;;;;10.15;5.55;;;;;;;;;;5038356;28;20036;-55
2023/05/23 04:35:07;;;;;;;11.50;6.07;;;;;;;;;;5038567;28;20025;-51
2023/05/23 04:37:34;;;;;;;10.60;6.03;;;;;;;;;;5038353;28;20028;-50
2023/05/23 04:39:59;;;;;;;8.32;5.65;;;;;;;;;;5038145;28;20024;-54
2023/05/23 04:42:25;;;;;;;9.63;5.80;;;;;;;;;;5020538;28;20341;-50
2023/05/23 04:44:51;;;;;;;7.70;5.53;;;;;;;;;;5019886;28;20028;-51
2023/05/23 04:47:17;;;;;;;9.35;5.72;;;;;;;;;;5038666;28;20898;-52
2023/05/23 04:49:43;;;;;;;7.38;5.45;;;;;;;;;;5037852;28;20025;-53
2023/05/23 04:52:08;;;;;;;8.85;5.68;;;;;;;;;;5038233;28;20092;-52
2023/05/23 04:54:35;;;;;;;9.38;5.07;;;;;;;;;;5001951;28;20392;-54
2023/05/23 04:57:00;;;;;;;8.30;5.15;;;;;;;;;;5019740;28;20357;-55
2023/05/23 04:59:25;;;;;;;10.48;6.57;;;;;;;;;;5037384;28;20025;-53
2023/05/23 05:01:51;;;;;;;11.40;6.10;;;;;;;;;;5037703;28;20029;-55
2023/05/23 05:04:16;;;;;;;11.73;5.72;;;;;;;;;;5020030;28;20538;-54
2023/05/23 05:06:41;;;;;;;10.15;6.18;;;;;;;;;;5037885;28;20053;-55
2023/05/23 05:09:06;;;;;;;13.77;6.45;;;;;;;;;;5038097;28;20045;-52
2023/05/23 05:11:32;;;;;;;11.70;5.50;;;;;;;;;;5037386;28;20116;-55
2023/05/23 05:13:57;;;;;;;13.27;6.57;;;;;;;;;;5038167;28;20258;-52
2023/05/23 05:16:22;;;;;;;12.30;6.28;;;;;;;;;;5001680;28;20257;-54
2023/05/23 05:18:48;;;;;;;12.35;6.28;;;;;;;;;;5040033;28;20114;-51
2023/05/23 05:21:13;;;;;;;12.13;6.80;;;;;;;;;;5041807;28;20045;-54
2023/05/23 05:23:38;;;;;;;10.10;6.13;;;;;;;;;;5024084;28;20021;-49
2023/05/23 05:26:04;;;;;;;10.03;6.30;;;;;;;;;;5041531;28;20025;-52
2023/05/23 05:28:29;;;;;;;10.00;5.03;;;;;;;;;;5041938;28;20242;-53
2023/05/23 05:30:55;;;;;;;9.05;6.57;;;;;;;;;;5005553;28;20114;-53
2023/05/23 05:33:24;;;;;;;11.90;4.82;;;;;;;;;;5023416;28;20029;-54
2023/05/23 05:35:52;;;;;;;8.07;5.30;;;;;;;;;;5041644;28;20024;-51
2023/05/23 05:38:17;;;;;;;11.35;5.47;;;;;;;;;;5041186;28;20259;-50
2023/05/23 05:40:43;;;;;;;11.95;5.88;;;;;;;;;;5045213;28;20388;-52
2023/05/23 05:43:09;;;;;;;12.93;6.10;;;;;;;;;;5047591;28;20082;-51
2023/05/23 05:45:34;;;;;;;7.88;5.28;;;;;;;;;;5046260;28;20025;-53
2023/05/23 05:47:59;;;;;;;10.43;5.57;;;;;;;;;;5047899;28;20431;-52
2023/05/23 05:50:25;;;;;;;13.18;6.55;;;;;;;;;;5047946;28;20063;-54
2023/05/23 05:52:50;;;;;;;16.27;6.93;;;;;;;;;;5056690;28;20017;-54
2023/05/23 05:55:15;;;;;;;14.98;6.82;;;;;;;;;;5047934;28;20052;-50
2023/05/23 05:57:41;;;;;;;13.20;6.43;;;;;;;;;;5047197;28;20528;-53
2023/05/23 06:00:17;;;;;;;14.02;6.15;;;;;;;;;;5045417;28;20270;-53
2023/05/23 06:02:43;;;;;;;8.73;5.40;;;;;;;;;;5052978;28;20025;-52
2023/05/23 06:05:12;;;;;;;16.60;5.50;;;;;;;;;;5046985;28;20028;-55
2023/05/23 06:07:38;;;;;;;;;;;;;;;;;;5045930;28;20048;-56
2023/05/23 06:10:03;;;;;;;12.20;5.87;;;;;;;;;;5048485;28;19978;-56
2023/05/23 06:12:28;;;;;;;11.63;5.22;;;;;;;;;;4998383;28;20037;-53
2023/05/23 06:14:54;;;;;;;16.03;6.43;;;;;;;;;;5056690;28;20025;-56
2023/05/23 06:17:19;;;;;;;32.67;6.70;;;;;;;;;;5048528;28;20328;-56
2023/05/23 06:19:44;;;;;;;10.47;5.20;;;;;;;;;;5044857;28;20021;-56
2023/05/23 06:22:09;;;;;;;15.07;5.70;;;;;;;;;;5048524;28;20314;-56
2023/05/23 06:24:35;;;;;;;16.50;5.80;;;;;;;;;;5049278;28;20028;-60
2023/05/23 06:27:00;;;;;;;12.70;5.40;;;;;;;;;;5049443;28;20697;-60
2023/05/23 06:29:25;;;;;;;15.73;5.40;;;;;;;;;;5049748;28;20268;-61
2023/05/23 06:31:50;;;;;;;10.23;5.60;;;;;;;;;;5045540;28;20748;-61
2023/05/23 06:34:16;;;;;;;11.87;5.70;;;;;;;;;;5046212;28;20258;-60
2023/05/23 06:36:41;;;;;;;17.00;6.18;;;;;;;;;;5042858;28;20506;-59
2023/05/23 06:39:08;;;;;;;13.35;5.63;;;;;;;;;;4996499;28;20025;-59
2023/05/23 06:41:34;;;;;;;11.73;5.43;;;;;;;;;;5045476;28;20021;-58
2023/05/23 06:43:59;;;;;;;15.55;6.03;;;;;;;;;;5044451;28;20471;-56
2023/05/23 06:46:25;;;;;;;16.60;5.82;;;;;;;;;;5045673;28;20384;-56
2023/05/23 06:48:50;;;;;;;19.55;5.82;;;;;;;;;;5042318;28;20695;-56
2023/05/23 06:51:15;;;;;;;9.40;5.30;;;;;;;;;;5048966;28;20124;-56
2023/05/23 06:53:41;;;;;;;14.20;4.93;;;;;;;;;;5045582;28;20412;-55
2023/05/23 06:56:06;;;;;;;9.53;4.47;;;;;;;;;;5054344;28;20438;-57
2023/05/23 06:58:31;;;;;;;6.10;3.77;;;;;;;;;;5047727;28;20017;-57
2023/05/23 07:00:56;;;;;;;10.70;4.67;;;;;;;;;;5047751;28;20041;-56
2023/05/23 07:03:22;;;;;;;15.32;4.63;;;;;;;;;;5045745;28;20033;-56
2023/05/23 07:05:47;;;;;;;12.87;4.90;;;;;;;;;;5053037;28;20052;-57
2023/05/23 07:08:12;;;;;;;9.57;5.17;;;;;;;;;;5045180;28;20265;-56
2023/05/23 07:10:40;;;;;;;12.88;4.65;;;;;;;;;;5054494;28;20277;-58
2023/05/23 07:13:05;;;;;;;14.77;4.57;;;;;;;;;;5037666;28;20472;-57
2023/05/23 07:15:30;;;;;;;12.13;4.80;;;;;;;;;;5027831;28;20033;-56
2023/05/23 07:17:56;;;;;;;18.20;7.73;;;;;;;;;;5043561;28;20082;-57
2023/05/23 07:20:21;;;;;;;18.97;7.10;;;;;;;;;;5052461;28;20032;-52
2023/05/23 07:22:46;;;;;;;11.35;7.00;;;;;;;;;;5048828;28;20029;-54
2023/05/23 07:25:11;;;;;;;19.10;6.83;;;;;;;;;;5046236;28;20043;-57
2023/05/23 07:27:37;;;;;;;23.80;7.40;;;;;;;;;;5040707;28;20797;-57
2023/05/23 07:30:03;;;;;;;11.63;6.00;;;;;;;;;;5052110;28;21000;-54
2023/05/23 07:32:29;;;;;;;255.77;233.77;;;;;;;;;;5046920;28;20060;-57
2023/05/23 07:34:54;;;;;;;894.40;814.45;;;;;;;;;;5045620;28;20067;-57
2023/05/23 07:37:19;;;;;;;689.55;628.08;;;;;;;;;;5050564;28;20055;-52
2023/05/23 07:39:45;;;;;;;609.73;557.00;;;;;;;;;;5045783;28;20086;-57
2023/05/23 07:42:10;;;;;;;10.07;4.13;;;;;;;;;;5040701;28;20437;-57
2023/05/23 07:44:36;;;;;;;10.43;4.60;;;;;;;;;;5053052;28;20616;-56
2023/05/23 07:47:02;;;;;;;9.00;4.75;;;;;;;;;;5008632;28;20512;-57
2023/05/23 07:49:27;;;;;;;11.90;5.38;;;;;;;;;;5059944;28;20111;-55
2023/05/23 07:51:53;;;;;;;711.70;645.90;;;;;;;;;;5043474;28;20036;-57
2023/05/23 07:54:18;;;;;;;908.67;836.03;;;;;;;;;;5051783;28;20480;-57
2023/05/23 07:56:44;;;;;;;789.00;720.83;;;;;;;;;;5038355;28;20325;-55
2023/05/23 07:59:09;;;;;;;926.60;834.20;;;;;;;;;;5057342;28;20419;-55
2023/05/23 08:01:35;;;;;;;934.93;845.47;;;;;;;;;;5047842;28;20100;-57
2023/05/23 08:04:01;;;;;;;983.63;886.75;;;;;;;;;;5030331;28;20867;-57
2023/05/23 08:06:26;;;;;;;11.60;4.55;;;;;;;;;;5043008;28;20044;-54
2023/05/23 08:08:52;;;;;;;11.68;5.18;;;;;;;;;;5048802;28;20491;-58
2023/05/23 08:11:17;;;;;;;19.83;6.27;;;;;;;;;;5054741;28;20095;-56
2023/05/23 08:13:42;;;;;;;18.25;4.90;;;;;;;;;;5048634;28;20650;-57
2023/05/23 08:16:08;;;;;;;105.47;9.43;;;;;;;;;;5050036;28;20028;-60
2023/05/23 08:18:33;;;;;;;19.00;4.80;;;;;;;;;;5049343;28;20274;-59
2023/05/23 08:20:58;;;;;;;22.13;4.30;;;;;;;;;;5050827;28;20680;-59
2023/05/23 08:23:24;;;;;;;11.63;4.73;;;;;;;;;;5038064;28;20060;-59
2023/05/23 08:25:49;;;;;;;9.43;4.22;;;;;;;;;;5033569;28;20597;-58
2023/05/23 08:28:15;;;;;;;10.73;4.07;;;;;;;;;;5041772;28;20068;-56
2023/05/23 08:30:41;;;;;;;15.55;4.32;;;;;;;;;;5044664;28;20028;-56
2023/05/23 08:33:06;;;;;;;13.13;5.13;;;;;;;;;;5040598;28;20033;-56
2023/05/23 08:35:35;;;;;;;14.93;5.00;;;;;;;;;;5039738;28;20085;-59
2023/05/23 08:38:04;;;;;;;17.23;6.25;;;;;;;;;;5047807;28;20035;-59
2023/05/23 08:40:31;;;;;;;11.95;5.90;;;;;;;;;;5044377;28;20028;-58
2023/05/23 08:42:56;;;;;;;9.95;5.30;;;;;;;;;;5052439;28;20112;-59
2023/05/23 08:45:22;;;;;;;9.88;5.22;;;;;;;;;;5045966;28;20115;-59
2023/05/23 08:47:48;;;;;;;8.43;4.57;;;;;;;;;;5051478;28;20095;-59
2023/05/23 08:50:15;;;;;;;18.17;4.93;;;;;;;;;;5049034;28;20136;-59
2023/05/23 08:52:49;;;;;;;8.63;5.03;;;;;;;;;;5047370;28;20127;-59
2023/05/23 08:55:15;;;;;;;12.05;4.65;;;;;;;;;;5056790;28;20028;-59
2023/05/23 08:57:42;;;;;;;10.88;4.40;;;;;;;;;;5054276;28;20055;-58
2023/05/23 09:00:13;;;;;;;8.65;4.20;;;;;;;;;;5009820;28;20261;-59
2023/05/23 09:02:39;;;;;;;10.73;4.80;;;;;;;;;;5042306;28;20013;-58
2023/05/23 09:05:04;;;;;;;7.35;5.05;;;;;;;;;;5050258;28;20046;-60
2023/05/23 09:07:29;;;;;;;10.05;4.20;;;;;;;;;;4992551;28;20095;-58
2023/05/23 09:09:55;;;;;;;6.70;4.03;;;;;;;;;;5054135;28;20029;-59
2023/05/23 09:12:23;;;;;;;7.22;3.38;;;;;;;;;;5058921;28;20257;-59
2023/05/23 09:14:49;;;;;;;8.77;3.75;;;;;;;;;;5035088;28;20263;-59
2023/05/23 09:17:15;;;;;;;7.70;3.50;;;;;;;;;;5043476;28;20520;-59
2023/05/23 09:19:42;;;;;;;10.60;3.35;;;;;;;;;;5052296;28;20443;-59
2023/05/23 09:22:07;;;;;;;7.97;3.72;;;;;;;;;;5054927;28;20113;-58
2023/05/23 09:24:33;;;;;;;5.23;3.27;;;;;;;;;;5046092;28;20115;-59
2023/05/23 09:26:58;;;;;;;9.40;4.03;;;;;;;;;;5042812;28;20025;-59
2023/05/23 09:29:24;;;;;;;6.20;3.40;;;;;;;;;;5046568;28;20487;-57
2023/05/23 09:31:49;;;;;;;8.27;4.45;;;;;;;;;;5045627;28;20133;-59
2023/05/23 09:34:15;;;;;;;16.53;4.10;;;;;;;;;;5057605;28;20028;-59
2023/05/23 09:36:42;;;;;;;19.70;4.50;;;;;;;;;;5043690;28;20476;-58
2023/05/23 09:39:10;;;;;;;6.63;3.85;;;;;;;;;;5025586;28;20361;-58
2023/05/23 09:41:36;;;;;;;5.30;3.85;;;;;;;;;;5044882;28;20119;-58
2023/05/23 09:44:06;;;;;;;11.57;4.07;;;;;;;;;;5044591;28;20112;-57
2023/05/23 09:46:33;;;;;;;8.23;3.90;;;;;;;;;;5044392;28;20246;-58
2023/05/23 09:48:59;;;;;;;6.55;3.33;;;;;;;;;;5047198;28;20029;-59
2023/05/23 09:51:24;;;;;;;6.03;3.28;;;;;;;;;;5027886;28;20128;-56
2023/05/23 09:53:50;;;;;;;9.17;3.47;;;;;;;;;;5046575;28;20385;-59
2023/05/23 09:56:16;;;;;;;8.75;3.63;;;;;;;;;;5054369;28;20238;-59
2023/05/23 09:58:48;;;;;;;9.05;3.75;;;;;;;;;;5049167;28;20025;-58
2023/05/23 10:01:14;;;;;;;7.50;3.80;;;;;;;;;;5047842;28;20027;-58
2023/05/23 10:03:44;;;;;;;7.50;3.90;;;;;;;;;;5055038;28;20066;-57
2023/05/23 10:06:11;;;;;;;5.75;4.10;;;;;;;;;;5052607;28;20392;-57
2023/05/23 10:08:42;;;;;;;10.20;3.67;;;;;;;;;;5065157;28;20024;-57
2023/05/23 10:11:15;;;;;;;10.05;4.20;;;;;;;;;;5055377;28;20036;-58
2023/05/23 10:13:42;;;;;;;7.68;3.85;;;;;;;;;;5054523;28;20039;-58
2023/05/23 10:16:10;;;;;;;9.90;4.30;;;;;;;;;;5051920;28;20035;-59
2023/05/23 10:18:41;;;;;;;8.88;3.75;;;;;;;;;;5055134;28;20013;-58
2023/05/23 10:21:08;;;;;;;5.30;3.55;;;;;;;;;;5060621;28;20380;-59
2023/05/23 10:23:35;;;;;;;5.10;3.55;;;;;;;;;;5030941;28;20036;-59
2023/05/23 10:26:01;;;;;;;9.88;3.58;;;;;;;;;;5050893;28;20345;-58
2023/05/23 10:28:27;;;;;;;7.63;3.53;;;;;;;;;;5054040;28;20024;-59
2023/05/23 10:30:52;;;;;;;7.70;4.57;;;;;;;;;;5066025;28;20029;-59
2023/05/23 10:33:18;;;;;;;7.43;4.20;;;;;;;;;;5032044;28;20093;-56
2023/05/23 10:35:55;;;;;;;11.25;4.05;;;;;;;;;;5049187;28;20268;-56
2023/05/23 10:38:26;;;;;;;9.50;3.72;;;;;;;;;;5048570;28;20029;-57
2023/05/23 10:40:52;;;;;;;9.45;3.17;;;;;;;;;;5048896;28;20095;-56
2023/05/23 10:43:17;;;;;;;10.93;3.63;;;;;;;;;;5046612;28;20041;-59
2023/05/23 10:45:42;;;;;;;5.73;3.10;;;;;;;;;;5047623;28;20756;-59
2023/05/23 10:48:31;;;;;;;7.72;3.17;;;;;;;;;;5047425;28;20055;-58
2023/05/23 10:51:06;;;;;;;8.90;3.77;;;;;;;;;;4934960;29;20053;-59
2023/05/23 10:53:34;;;;;;;9.73;3.50;;;;;;;;;;4925010;29;20289;-58
2023/05/23 10:56:00;;;;;;;4.65;3.40;;;;;;;;;;4926482;28;20043;-56
2023/05/23 10:58:28;;;;;;;6.43;3.30;;;;;;;;;;4939207;29;20043;-57
2023/05/23 11:00:55;;;;;;;6.00;3.55;;;;;;;;;;4940665;29;20035;-58
2023/05/23 11:03:32;;;;;;;6.28;3.50;;;;;;;;;;4940257;29;20118;-58
2023/05/23 11:05:58;;;;;;;11.95;3.88;;;;;;;;;;4930081;29;20558;-58
2023/05/23 11:08:23;;;;;;;4.85;3.65;;;;;;;;;;4932445;29;20475;-57
2023/05/23 11:10:51;;;;;;;5.70;4.07;;;;;;;;;;4932123;29;20027;-59
2023/05/23 11:13:17;;;;;;;6.93;3.83;;;;;;;;;;4927615;29;20044;-56
2023/05/23 11:15:44;;;;;;;8.13;4.38;;;;;;;;;;4930541;29;20132;-60
2023/05/23 11:18:18;;;;;;;7.30;3.60;;;;;;;;;;4929247;28;20028;-59
2023/05/23 11:20:44;;;;;;;11.30;4.32;;;;;;;;;;4931696;29;20043;-58
2023/05/23 11:23:11;;;;;;;8.45;3.78;;;;;;;;;;4924798;29;20028;-58
2023/05/23 11:25:43;;;;;;;9.13;4.13;;;;;;;;;;4926693;28;20768;-60
2023/05/23 11:28:09;;;;;;;9.93;4.38;;;;;;;;;;4991563;28;20051;-59
2023/05/23 11:30:37;;;;;;;12.18;4.22;;;;;;;;;;5043512;28;20029;-59
2023/05/23 11:33:12;;;;;;;8.05;4.00;;;;;;;;;;5050895;28;20032;-58
2023/05/23 11:35:41;;;;;;;7.32;3.90;;;;;;;;;;5044060;28;20033;-58
2023/05/23 11:38:07;;;;;;;8.13;4.50;;;;;;;;;;5047320;28;20695;-58
2023/05/23 11:40:34;;;;;;;8.27;4.40;;;;;;;;;;5047640;28;20033;-58
2023/05/23 11:43:00;;;;;;;6.70;3.40;;;;;;;;;;5044614;28;20033;-58
2023/05/23 11:45:27;;;;;;;11.93;4.20;;;;;;;;;;5046962;28;20029;-59
2023/05/23 11:47:53;;;;;;;20.52;5.10;;;;;;;;;;5041218;28;20052;-58
2023/05/23 11:50:19;;;;;;;6.87;3.73;;;;;;;;;;5048740;28;20021;-58
2023/05/23 11:52:50;;;;;;;8.65;4.38;;;;;;;;;;5047703;28;20262;-59
2023/05/23 11:55:15;;;;;;;8.18;3.92;;;;;;;;;;5046659;28;21899;-60
2023/05/23 11:57:40;;;;;;;8.35;4.15;;;;;;;;;;5045411;28;20017;-59
2023/05/23 12:00:07;;;;;;;15.90;4.00;;;;;;;;;;5049892;28;20028;-58
2023/05/23 12:02:37;;;;;;;8.30;3.70;;;;;;;;;;5046227;28;20257;-60
2023/05/23 12:05:05;;;;;;;12.88;3.47;;;;;;;;;;5046926;28;20032;-57
2023/05/23 12:07:32;;;;;;;11.95;4.32;;;;;;;;;;5040849;28;20051;-58
2023/05/23 12:09:57;;;;;;;10.80;4.13;;;;;;;;;;5054000;28;20036;-60
2023/05/23 12:12:23;;;;;;;7.72;3.75;;;;;;;;;;5051706;28;20032;-59
2023/05/23 12:14:48;;;;;;;10.52;4.45;;;;;;;;;;5048429;28;20024;-59
2023/05/23 12:17:13;;;;;;;6.07;3.42;;;;;;;;;;5048605;28;20020;-59
2023/05/23 12:19:39;;;;;;;7.40;3.60;;;;;;;;;;4992622;28;20036;-54
2023/05/23 12:22:07;;;;;;;9.30;3.75;;;;;;;;;;5049939;28;20254;-60
2023/05/23 12:24:32;;;;;;;4.85;3.55;;;;;;;;;;5048887;28;20137;-59
2023/05/23 12:26:58;;;;;;;7.17;4.00;;;;;;;;;;5043526;28;20116;-59
2023/05/23 12:29:31;;;;;;;4.63;3.33;;;;;;;;;;5045183;28;20356;-57
2023/05/23 12:32:00;;;;;;;10.27;4.00;;;;;;;;;;5046372;28;20703;-58
2023/05/23 12:34:25;;;;;;;10.00;3.85;;;;;;;;;;5026658;28;20553;-58
2023/05/23 12:36:57;;;;;;;12.30;4.17;;;;;;;;;;5040212;28;20021;-59
2023/05/23 12:39:23;;;;;;;5.18;3.17;;;;;;;;;;5044260;28;20281;-59
2023/05/23 12:41:48;;;;;;;57.22;5.72;;;;;;;;;;5038638;28;20020;-58
2023/05/23 12:44:16;;;;;;;10.23;4.40;;;;;;;;;;5039742;28;20746;-54
2023/05/23 12:46:42;;;;;;;8.90;4.25;;;;;;;;;;5043349;28;20025;-58
2023/05/23 12:49:07;;;;;;;18.08;4.75;;;;;;;;;;5051821;28;20487;-59
2023/05/23 12:51:32;;;;;;;12.77;4.70;;;;;;;;;;5063303;28;20028;-57
2023/05/23 12:53:58;;;;;;;8.87;4.47;;;;;;;;;;5060733;28;20276;-58
2023/05/23 12:56:23;;;;;;;6.47;4.25;;;;;;;;;;5061545;28;20796;-59
2023/05/23 12:58:48;;;;;;;12.60;5.07;;;;;;;;;;5046314;28;20025;-58
2023/05/23 13:01:14;;;;;;;11.07;4.40;;;;;;;;;;4990989;28;20068;-59
2023/05/23 13:03:39;;;;;;;13.70;4.45;;;;;;;;;;5062973;28;20013;-59
2023/05/23 13:06:05;;;;;;;8.68;4.85;;;;;;;;;;5047996;28;20098;-58
2023/05/23 13:08:31;;;;;;;11.70;5.13;;;;;;;;;;5044245;28;20357;-58
2023/05/23 13:10:56;;;;;;;8.32;4.43;;;;;;;;;;5042113;28;20438;-57
2023/05/23 13:13:21;;;;;;;31.75;5.68;;;;;;;;;;5046926;28;20035;-58
2023/05/23 13:15:47;;;;;;;10.88;4.55;;;;;;;;;;5057335;28;20027;-56
2023/05/23 13:18:12;;;;;;;8.88;4.50;;;;;;;;;;5053033;28;20017;-58
2023/05/23 13:20:37;;;;;;;6.20;4.07;;;;;;;;;;5046330;28;20505;-63
2023/05/23 13:23:03;;;;;;;17.20;4.73;;;;;;;;;;5054957;28;20487;-62
2023/05/23 13:25:28;;;;;;;20.60;8.93;;;;;;;;;;5045807;28;20009;-60
2023/05/23 13:27:54;;;;;;;12.32;4.30;;;;;;;;;;5055445;28;20746;-63
2023/05/23 13:30:21;;;;;;;7.00;3.90;;;;;;;;;;5032385;28;20676;-60
2023/05/23 13:32:46;;;;;;;5.68;3.58;;;;;;;;;;5039479;28;20135;-62
2023/05/23 13:35:11;;;;;;;8.30;3.60;;;;;;;;;;5051777;28;20497;-62
2023/05/23 13:37:37;;;;;;;6.00;3.58;;;;;;;;;;5050283;28;20261;-60
2023/05/23 13:40:02;;;;;;;5.53;2.70;;;;;;;;;;5051899;28;20021;-57
2023/05/23 13:42:28;;;;;;;6.88;3.20;;;;;;;;;;5054874;28;20108;-58
2023/05/23 13:44:54;;;;;;;7.15;3.30;;;;;;;;;;5060894;28;20442;-58
2023/05/23 13:47:19;;;;;;;11.32;3.10;;;;;;;;;;5056904;28;20412;-56
2023/05/23 13:49:44;;;;;;;10.15;3.55;;;;;;;;;;5045706;28;20029;-57
2023/05/23 13:52:10;;;;;;;11.30;2.93;;;;;;;;;;5048372;28;20064;-59
2023/05/23 13:54:35;;;;;;;5.65;3.38;;;;;;;;;;5054742;28;20253;-56
2023/05/23 13:57:01;;;;;;;10.40;3.50;;;;;;;;;;4995867;28;20037;-58
2023/05/23 13:59:27;;;;;;;5.35;3.63;;;;;;;;;;5053139;28;20048;-56
2023/05/23 14:01:52;;;;;;;14.25;3.92;;;;;;;;;;5056886;28;20043;-56
2023/05/23 14:04:17;;;;;;;7.00;3.67;;;;;;;;;;5049689;28;20024;-57
2023/05/23 14:06:43;;;;;;;12.73;3.67;;;;;;;;;;5050012;28;20047;-59
2023/05/23 14:09:08;;;;;;;5.82;3.50;;;;;;;;;;5057742;28;20127;-58
2023/05/23 14:11:34;;;;;;;7.78;3.78;;;;;;;;;;5046192;28;20517;-59
2023/05/23 14:13:59;;;;;;;9.55;3.83;;;;;;;;;;5054962;28;20032;-57
2023/05/23 14:16:24;;;;;;;18.02;4.00;;;;;;;;;;5047962;28;20519;-56
2023/05/23 14:18:50;;;;;;;6.60;3.60;;;;;;;;;;5049364;28;20029;-55
2023/05/23 14:21:15;;;;;;;5.60;2.95;;;;;;;;;;5047044;28;20063;-56
2023/05/23 14:23:40;;;;;;;7.28;3.20;;;;;;;;;;5057140;28;20082;-58
2023/05/23 14:26:06;;;;;;;7.30;2.90;;;;;;;;;;5012710;28;20042;-58
2023/05/23 14:28:31;;;;;;;7.68;3.15;;;;;;;;;;5049077;28;20037;-62